createdAt,value
2022-10-11T00:00:16.072Z,13.13
2022-10-11T00:02:42.949Z,8.77
2022-10-11T00:05:10.506Z,12.40
2022-10-11T00:07:38.576Z,10.15
2022-10-11T00:10:07.531Z,8.80
2022-10-11T00:12:34.626Z,12.05
2022-10-11T00:15:01.827Z,12.07
2022-10-11T00:17:28.743Z,10.40
2022-10-11T00:19:55.699Z,13.43
2022-10-11T00:22:22.578Z,11.70
2022-10-11T00:24:49.472Z,14.23
2022-10-11T00:27:16.367Z,8.47
2022-10-11T00:29:43.231Z,11.05
2022-10-11T00:32:10.098Z,9.55
2022-10-11T00:34:36.982Z,10.93
2022-10-11T00:37:03.930Z,10.13
2022-10-11T00:39:30.870Z,13.00
2022-10-11T00:41:57.772Z,10.05
2022-10-11T00:44:28.927Z,10.63
2022-10-11T00:47:02.297Z,10.27
2022-10-11T00:49:38.751Z,10.88
2022-10-11T00:52:16.132Z,13.50
2022-10-11T00:54:46.106Z,12.20
2022-10-11T00:57:18.919Z,9.13
2022-10-11T00:59:51.399Z,12.85
2022-10-11T01:02:19.955Z,9.95
2022-10-11T01:04:47.036Z,11.23
2022-10-11T01:07:14.168Z,11.18
2022-10-11T01:09:41.218Z,12.40
2022-10-11T01:12:21.685Z,12.85
2022-10-11T01:15:31.503Z,10.43
2022-10-11T01:18:19.410Z,12.67
2022-10-11T01:20:58.269Z,12.57
2022-10-11T01:23:54.516Z,10.25
2022-10-11T01:27:16.744Z,9.73
2022-10-11T01:30:01.737Z,14.85
2022-10-11T01:32:44.292Z,11.20
2022-10-11T01:35:22.008Z,12.80
2022-10-11T01:38:07.045Z,9.85
2022-10-11T01:40:47.182Z,18.42
2022-10-11T01:43:15.567Z,11.98
2022-10-11T01:45:43.851Z,10.87
2022-10-11T01:48:14.024Z,9.98
2022-10-11T01:50:54.249Z,12.43
2022-10-11T01:53:58.296Z,11.82
2022-10-11T01:56:55.136Z,12.80
2022-10-11T01:59:42.284Z,11.13
2022-10-11T02:02:52.897Z,10.30
2022-10-11T02:05:29.042Z,9.32
2022-10-11T02:08:09.482Z,11.27
2022-10-11T02:10:51.420Z,14.95
2022-10-11T02:13:36.405Z,9.70
2022-10-11T02:16:11.167Z,19.42
2022-10-11T02:18:42.986Z,10.93
2022-10-11T02:21:17.306Z,13.68
2022-10-11T02:24:00.414Z,10.57
2022-10-11T02:26:32.212Z,13.60
2022-10-11T02:29:04.320Z,11.73
2022-10-11T02:31:35.404Z,14.80
2022-10-11T02:34:27.934Z,13.48
2022-10-11T02:37:36.760Z,11.98
2022-10-11T02:40:25.032Z,16.38
2022-10-11T02:43:01.532Z,11.60
2022-10-11T02:45:53.263Z,12.37
2022-10-11T02:48:20.375Z,10.10
2022-10-11T02:50:47.844Z,13.85
2022-10-11T02:53:14.756Z,12.48
2022-10-11T02:55:41.628Z,10.20
2022-10-11T02:58:08.516Z,11.90
2022-10-11T03:00:35.433Z,10.23
2022-10-11T03:03:02.292Z,11.23
2022-10-11T03:05:29.212Z,8.40
2022-10-11T03:07:56.087Z,8.30
2022-10-11T03:10:23.028Z,13.60
2022-10-11T03:12:50.501Z,9.10
2022-10-11T03:15:17.394Z,12.30
2022-10-11T03:17:44.293Z,10.18
2022-10-11T03:20:11.465Z,14.05
2022-10-11T03:22:38.552Z,13.60
2022-10-11T03:25:05.868Z,12.52
2022-10-11T03:27:34.106Z,9.85
2022-10-11T03:30:01.411Z,12.40
2022-10-11T03:32:29.000Z,8.18
2022-10-11T03:34:56.111Z,12.67
2022-10-11T03:37:23.058Z,11.43
2022-10-11T03:39:50.211Z,9.50
2022-10-11T03:42:17.200Z,17.67
2022-10-11T03:44:44.064Z,11.82
2022-10-11T03:47:11.134Z,9.17
2022-10-11T03:49:43.283Z,7.03
2022-10-11T03:52:10.887Z,9.40
2022-10-11T03:54:37.809Z,10.05
2022-10-11T03:57:04.876Z,12.82
2022-10-11T03:59:31.882Z,12.40
2022-10-11T04:01:59.210Z,7.97
2022-10-11T04:04:26.225Z,11.52
2022-10-11T04:06:53.458Z,12.57
2022-10-11T04:09:20.452Z,11.60
2022-10-11T04:11:47.391Z,11.83
2022-10-11T04:14:14.503Z,9.70
2022-10-11T04:16:41.861Z,10.27
2022-10-11T04:19:09.262Z,10.63
2022-10-11T04:21:36.136Z,11.13
2022-10-11T04:24:03.124Z,11.37
2022-10-11T04:26:30.088Z,11.90
2022-10-11T04:28:57.033Z,8.88
2022-10-11T04:31:24.064Z,10.68
2022-10-11T04:33:51.116Z,14.93
2022-10-11T04:36:18.079Z,17.07
2022-10-11T04:38:44.996Z,9.93
2022-10-11T04:41:15.045Z,11.00
2022-10-11T04:43:42.552Z,10.63
2022-10-11T04:46:11.196Z,11.63
2022-10-11T04:48:38.415Z,10.50
2022-10-11T04:51:05.563Z,11.02
2022-10-11T04:53:32.576Z,12.95
2022-10-11T04:56:03.515Z,9.57
2022-10-11T04:58:32.456Z,9.65
2022-10-11T05:00:59.403Z,8.90
2022-10-11T05:03:27.076Z,10.27
2022-10-11T05:05:54.200Z,9.63
2022-10-11T05:08:24.946Z,13.80
2022-10-11T05:11:07.041Z,14.63
2022-10-11T05:13:35.742Z,8.73
2022-10-11T05:16:08.240Z,14.35
2022-10-11T05:18:37.723Z,9.63
2022-10-11T05:21:19.801Z,10.48
2022-10-11T05:23:48.687Z,11.10
2022-10-11T05:26:16.804Z,14.70
2022-10-11T05:28:44.457Z,11.00
2022-10-11T05:31:12.036Z,11.52
2022-10-11T05:33:38.965Z,15.93
2022-10-11T05:36:07.540Z,12.50
2022-10-11T05:38:35.123Z,14.60
2022-10-11T05:41:03.962Z,11.80
2022-10-11T05:43:31.341Z,12.27
2022-10-11T05:45:58.941Z,11.90
2022-10-11T05:48:26.737Z,11.55
2022-10-11T05:50:59.791Z,9.63
2022-10-11T05:53:27.147Z,12.20
2022-10-11T05:55:54.067Z,11.80
2022-10-11T05:58:20.997Z,8.65
2022-10-11T06:00:47.999Z,9.27
2022-10-11T06:03:15.426Z,10.00
2022-10-11T06:05:42.493Z,10.15
2022-10-11T06:08:10.670Z,8.82
2022-10-11T06:10:38.700Z,19.52
2022-10-11T06:13:06.348Z,12.85
2022-10-11T06:15:34.023Z,9.03
2022-10-11T06:18:01.075Z,8.20
2022-10-11T06:20:28.414Z,13.13
2022-10-11T06:22:55.412Z,11.40
2022-10-11T06:25:22.511Z,11.05
2022-10-11T06:27:49.409Z,17.30
2022-10-11T06:30:16.393Z,16.63
2022-10-11T06:32:43.253Z,11.23
2022-10-11T06:35:10.304Z,15.35
2022-10-11T06:37:37.191Z,16.02
2022-10-11T06:40:04.537Z,13.23
2022-10-11T06:42:31.401Z,12.88
2022-10-11T06:44:58.319Z,9.93
2022-10-11T06:47:25.216Z,13.32
2022-10-11T06:49:52.164Z,15.27
2022-10-11T06:52:19.028Z,13.00
2022-10-11T06:54:45.916Z,14.80
2022-10-11T06:57:13.007Z,15.82
2022-10-11T06:59:39.867Z,23.70
2022-10-11T07:02:07.205Z,19.35
2022-10-11T07:04:34.184Z,14.37
2022-10-11T07:07:01.371Z,14.45
2022-10-11T07:09:28.452Z,20.73
2022-10-11T07:11:55.594Z,21.85
2022-10-11T07:14:22.483Z,17.77
2022-10-11T07:16:49.375Z,19.03
2022-10-11T07:19:16.468Z,14.40
2022-10-11T07:21:43.365Z,13.30
2022-10-11T07:24:10.383Z,14.20
2022-10-11T07:26:38.191Z,13.35
2022-10-11T07:29:08.886Z,17.73
2022-10-11T07:31:39.487Z,16.88
2022-10-11T07:34:07.174Z,21.02
2022-10-11T07:36:34.258Z,14.52
2022-10-11T07:39:02.855Z,18.17
2022-10-11T07:41:29.722Z,22.43
2022-10-11T07:43:56.596Z,18.85
2022-10-11T07:46:23.511Z,15.30
2022-10-11T07:48:50.409Z,16.90
2022-10-11T07:51:23.508Z,16.63
2022-10-11T07:53:54.103Z,15.90
2022-10-11T07:56:27.231Z,20.83
2022-10-11T07:59:00.149Z,18.33
2022-10-11T08:01:28.447Z,15.52
2022-10-11T08:03:59.437Z,14.85
2022-10-11T08:06:32.214Z,16.97
2022-10-11T08:09:00.993Z,14.98
2022-10-11T08:11:32.092Z,15.93
2022-10-11T08:14:00.489Z,17.02
2022-10-11T08:16:27.468Z,13.05
2022-10-11T08:18:56.822Z,13.20
2022-10-11T08:21:24.370Z,14.85
2022-10-11T08:23:51.238Z,16.40
2022-10-11T08:26:18.403Z,13.13
2022-10-11T08:28:45.471Z,16.13
2022-10-11T08:31:15.250Z,22.13
2022-10-11T08:33:42.789Z,14.63
2022-10-11T08:36:11.017Z,25.92
2022-10-11T08:38:38.668Z,16.58
2022-10-11T08:41:27.386Z,21.95
2022-10-11T08:44:51.856Z,16.63
2022-10-11T08:47:42.341Z,14.60
2022-10-11T08:50:20.003Z,20.20
2022-10-11T08:53:38.184Z,14.60
2022-10-11T08:56:06.431Z,19.65
2022-10-11T08:59:11.139Z,17.20
2022-10-11T09:01:46.936Z,14.27
2022-10-11T09:04:16.213Z,18.15
2022-10-11T09:06:55.400Z,19.23
2022-10-11T09:09:46.638Z,15.55
2022-10-11T09:12:27.112Z,12.17
2022-10-11T09:15:27.752Z,13.82
2022-10-11T09:18:29.813Z,18.40
2022-10-11T09:21:33.351Z,24.52
2022-10-11T09:24:28.519Z,17.95
2022-10-11T09:26:59.712Z,16.40
2022-10-11T09:29:59.807Z,15.05
2022-10-11T09:32:34.853Z,15.93
2022-10-11T09:35:20.994Z,11.35
2022-10-11T09:38:06.036Z,12.57
2022-10-11T09:40:58.612Z,12.93
2022-10-11T09:43:25.740Z,19.58
2022-10-11T09:45:52.630Z,17.02
2022-10-11T09:48:32.523Z,17.13
2022-10-11T09:51:06.772Z,11.23
2022-10-11T09:53:58.564Z,14.60
2022-10-11T09:56:29.562Z,15.90
2022-10-11T09:59:32.187Z,13.75
2022-10-11T10:02:17.039Z,15.50
2022-10-11T10:05:15.713Z,16.08
2022-10-11T10:08:09.748Z,13.30
2022-10-11T10:10:42.779Z,15.07
2022-10-11T10:13:51.158Z,17.00
2022-10-11T10:16:27.051Z,14.68
2022-10-11T10:18:59.004Z,10.65
2022-10-11T10:21:43.709Z,9.97
2022-10-11T10:24:35.795Z,13.75
2022-10-11T10:27:21.351Z,12.85
2022-10-11T10:30:10.203Z,11.32
2022-10-11T10:33:08.854Z,9.07
2022-10-11T10:35:43.172Z,9.77
2022-10-11T10:38:27.544Z,10.55
2022-10-11T10:41:08.769Z,15.52
2022-10-11T10:43:41.874Z,10.65
2022-10-11T10:46:30.361Z,11.57
2022-10-11T10:49:41.511Z,13.93
2022-10-11T10:52:56.037Z,10.70
2022-10-11T10:55:44.483Z,9.40
2022-10-11T10:58:33.336Z,12.40
2022-10-11T11:01:23.858Z,10.30
2022-10-11T11:04:12.576Z,10.70
2022-10-11T11:06:55.335Z,11.75
2022-10-11T11:09:55.185Z,6.80
2022-10-11T11:13:12.601Z,10.55
2022-10-11T11:16:08.818Z,10.68
2022-10-11T11:19:08.816Z,12.57
2022-10-11T11:22:15.055Z,12.70
2022-10-11T11:25:07.604Z,9.60
2022-10-11T11:27:49.652Z,12.68
2022-10-11T11:30:46.868Z,11.18
2022-10-11T11:33:48.632Z,8.03
2022-10-11T11:36:28.085Z,10.18
2022-10-11T11:39:07.364Z,15.07
2022-10-11T11:41:41.147Z,10.80
2022-10-11T11:44:37.922Z,10.52
2022-10-11T11:47:33.133Z,9.67
2022-10-11T11:50:25.082Z,11.45
2022-10-11T11:53:04.979Z,10.38
2022-10-11T11:56:02.136Z,8.88
2022-10-11T11:59:22.225Z,11.50
2022-10-11T12:02:23.380Z,10.93
2022-10-11T12:04:51.793Z,13.73
2022-10-11T12:07:23.142Z,7.43
2022-10-11T12:10:16.613Z,13.60
2022-10-11T12:12:43.823Z,10.77
2022-10-11T12:15:10.634Z,8.83
2022-10-11T12:17:58.397Z,8.38
2022-10-11T12:20:27.300Z,11.07
2022-10-11T12:23:05.135Z,10.07
2022-10-11T12:25:39.548Z,9.38
2022-10-11T12:28:37.535Z,15.37
2022-10-11T12:31:17.496Z,10.27
2022-10-11T12:33:47.157Z,12.82
2022-10-11T12:36:31.712Z,13.13
2022-10-11T12:39:20.185Z,12.93
2022-10-11T12:41:50.155Z,9.93
2022-10-11T12:44:20.387Z,9.57
2022-10-11T12:46:53.605Z,15.32
2022-10-11T12:49:48.540Z,11.07
2022-10-11T12:52:18.219Z,12.30
2022-10-11T12:55:18.073Z,9.00
2022-10-11T12:58:22.275Z,7.28
2022-10-11T13:00:52.238Z,8.35
2022-10-11T13:03:43.581Z,11.45
2022-10-11T13:06:45.339Z,11.48
2022-10-11T13:09:21.011Z,10.70
2022-10-11T13:12:01.058Z,11.52
2022-10-11T13:14:34.000Z,12.95
2022-10-11T13:17:03.831Z,9.35
2022-10-11T13:19:33.964Z,12.95
2022-10-11T13:22:13.111Z,9.00
2022-10-11T13:24:41.143Z,14.55
2022-10-11T13:27:30.118Z,9.23
2022-10-11T13:30:02.191Z,10.45
2022-10-11T13:32:31.328Z,12.20
2022-10-11T13:35:06.548Z,12.90
2022-10-11T13:37:44.692Z,13.35
2022-10-11T13:40:17.733Z,12.38
2022-10-11T13:42:45.894Z,13.60
2022-10-11T13:45:16.497Z,8.77
2022-10-11T13:47:44.368Z,10.37
2022-10-11T13:50:31.688Z,11.82
2022-10-11T13:53:07.904Z,10.93
2022-10-11T13:55:58.682Z,10.52
2022-10-11T13:58:46.272Z,10.23
2022-10-11T14:01:27.829Z,11.57
2022-10-11T14:04:05.644Z,9.43
2022-10-11T14:07:02.295Z,14.95
2022-10-11T14:09:39.058Z,8.88
2022-10-11T14:12:33.583Z,12.63
2022-10-11T14:15:04.145Z,9.40
2022-10-11T14:17:44.770Z,12.93
2022-10-11T14:20:12.067Z,13.35
2022-10-11T14:22:39.336Z,12.32
2022-10-11T14:25:06.614Z,12.95
2022-10-11T14:27:33.540Z,11.93
2022-10-11T14:30:24.603Z,11.65
2022-10-11T14:32:50.999Z,10.88
2022-10-11T14:35:27.811Z,10.85
2022-10-11T14:37:55.272Z,9.60
2022-10-11T14:40:28.823Z,13.73
2022-10-11T14:42:56.535Z,11.20
2022-10-11T14:45:23.576Z,12.55
2022-10-11T14:47:50.964Z,14.98
2022-10-11T14:50:31.852Z,11.13
2022-10-11T14:52:58.957Z,13.43
2022-10-11T14:55:26.376Z,12.75
2022-10-11T14:57:53.375Z,12.90
2022-10-11T15:00:26.008Z,9.95
2022-10-11T15:02:53.856Z,11.32
2022-10-11T15:05:23.588Z,16.63
2022-10-11T15:07:50.974Z,13.57
2022-10-11T15:10:28.454Z,10.57
2022-10-11T15:12:56.675Z,12.27
2022-10-11T15:15:30.379Z,10.30
2022-10-11T15:17:59.938Z,10.37
2022-10-11T15:20:35.855Z,15.88
2022-10-11T15:23:04.232Z,15.55
2022-10-11T15:25:31.905Z,15.90
2022-10-11T15:27:58.856Z,13.18
2022-10-11T15:30:31.140Z,12.67
2022-10-11T15:32:58.549Z,12.52
2022-10-11T15:35:27.136Z,9.82
2022-10-11T15:37:57.484Z,13.05
2022-10-11T15:40:32.052Z,12.20
2022-10-11T15:42:59.066Z,12.57
2022-10-11T15:45:27.090Z,17.67
2022-10-11T15:47:54.121Z,13.57
2022-10-11T15:50:41.358Z,13.80
2022-10-11T15:53:12.565Z,17.30
2022-10-11T15:55:43.861Z,16.97
2022-10-11T15:58:21.098Z,20.83
2022-10-11T16:00:50.756Z,18.20
2022-10-11T16:03:18.369Z,12.23
2022-10-11T16:05:45.335Z,10.25
2022-10-11T16:08:12.464Z,13.97
2022-10-11T16:10:41.153Z,14.70
2022-10-11T16:13:09.391Z,17.67
2022-10-11T16:15:39.572Z,14.70
2022-10-11T16:18:08.052Z,17.30
2022-10-11T16:20:39.736Z,13.40
2022-10-11T16:23:07.269Z,15.77
2022-10-11T16:25:35.321Z,10.98
2022-10-11T16:28:02.638Z,16.13
2022-10-11T16:30:29.628Z,13.18
2022-10-11T16:32:56.564Z,16.00
2022-10-11T16:35:23.970Z,13.82
2022-10-11T16:37:50.840Z,13.60
2022-10-11T16:40:20.217Z,14.65
2022-10-11T16:42:48.244Z,10.68
2022-10-11T16:45:16.491Z,12.83
2022-10-11T16:47:44.250Z,15.80
2022-10-11T16:50:12.175Z,14.60
2022-10-11T16:52:39.429Z,13.77
2022-10-11T16:55:07.031Z,11.18
2022-10-11T16:57:36.127Z,15.73
2022-10-11T17:00:04.941Z,11.48
2022-10-11T17:02:32.682Z,15.60
2022-10-11T17:04:59.737Z,11.13
2022-10-11T17:07:27.085Z,14.27
2022-10-11T17:09:54.071Z,20.43
2022-10-11T17:12:24.058Z,11.50
2022-10-11T17:14:51.864Z,14.98
2022-10-11T17:17:19.686Z,13.23
2022-10-11T17:19:47.597Z,14.95
2022-10-11T17:22:19.306Z,13.50
2022-10-11T17:24:46.397Z,16.85
2022-10-11T17:27:13.979Z,12.35
2022-10-11T17:29:41.390Z,14.23
2022-10-11T17:32:08.753Z,13.57
2022-10-11T17:34:35.993Z,17.87
2022-10-11T17:37:03.185Z,12.65
2022-10-11T17:39:30.143Z,16.20
2022-10-11T17:41:57.036Z,12.93
2022-10-11T17:44:23.935Z,12.40
2022-10-11T17:46:51.143Z,12.37
2022-10-11T17:49:18.234Z,13.82
2022-10-11T17:51:45.317Z,17.20
2022-10-11T17:54:12.827Z,17.02
2022-10-11T17:56:41.564Z,18.80
2022-10-11T17:59:15.594Z,15.03
2022-10-11T18:01:42.788Z,16.77
2022-10-11T18:04:16.328Z,17.42
2022-10-11T18:06:45.532Z,18.92
2022-10-11T18:09:16.223Z,16.13
2022-10-11T18:11:43.734Z,15.17
2022-10-11T18:14:10.764Z,14.68
2022-10-11T18:16:39.499Z,17.65
2022-10-11T18:19:10.817Z,18.50
2022-10-11T18:21:38.760Z,14.82
2022-10-11T18:24:11.288Z,13.93
2022-10-11T18:26:38.548Z,17.02
2022-10-11T18:29:05.853Z,16.15
2022-10-11T18:31:35.118Z,19.48
2022-10-11T18:34:04.714Z,18.90
2022-10-11T18:36:32.993Z,19.73
2022-10-11T18:39:04.072Z,22.25
2022-10-11T18:41:33.070Z,17.00
2022-10-11T18:44:06.579Z,23.00
2022-10-11T18:46:34.460Z,19.02
2022-10-11T18:49:02.685Z,17.27
2022-10-11T18:51:41.518Z,18.25
2022-10-11T18:54:12.919Z,19.70
2022-10-11T18:56:45.442Z,18.17
2022-10-11T18:59:12.594Z,17.10
2022-10-11T19:01:44.283Z,17.77
2022-10-11T19:04:15.934Z,21.23
2022-10-11T19:06:47.661Z,24.08
2022-10-11T19:09:22.346Z,23.42
2022-10-11T19:11:52.097Z,18.75
2022-10-11T19:14:23.075Z,17.47
2022-10-11T19:16:51.432Z,19.58
2022-10-11T19:19:27.517Z,19.52
2022-10-11T19:21:54.775Z,13.93
2022-10-11T19:24:24.751Z,20.30
2022-10-11T19:26:53.012Z,16.63
2022-10-11T19:29:23.430Z,23.00
2022-10-11T19:31:54.312Z,19.80
2022-10-11T19:34:22.384Z,23.50
2022-10-11T19:36:53.239Z,19.35
2022-10-11T19:39:22.616Z,19.27
2022-10-11T19:41:50.116Z,19.33
2022-10-11T19:44:17.439Z,18.42
2022-10-11T19:46:51.613Z,20.10
2022-10-11T19:49:22.302Z,20.58
2022-10-11T19:51:49.314Z,25.30
2022-10-11T19:54:16.780Z,21.05
2022-10-11T19:56:44.543Z,26.27
2022-10-11T19:59:13.427Z,27.17
2022-10-11T20:01:41.775Z,27.17
2022-10-11T20:04:27.458Z,26.97
2022-10-11T20:06:58.663Z,26.08
2022-10-11T20:09:30.443Z,28.50
2022-10-11T20:11:58.065Z,28.67
2022-10-11T20:14:25.580Z,22.15
2022-10-11T20:16:52.808Z,27.33
2022-10-11T20:19:19.991Z,27.20
2022-10-11T20:21:47.777Z,27.98
2022-10-11T20:24:14.926Z,22.90
2022-10-11T20:26:41.815Z,25.13
2022-10-11T20:29:08.831Z,23.10
2022-10-11T20:31:41.626Z,24.67
2022-10-11T20:34:10.849Z,22.45
2022-10-11T20:36:37.888Z,22.75
2022-10-11T20:39:06.523Z,28.00
2022-10-11T20:41:40.002Z,27.03
2022-10-11T20:44:12.312Z,26.38
2022-10-11T20:46:40.097Z,29.65
2022-10-11T20:49:10.661Z,27.42
2022-10-11T20:51:40.224Z,24.88
2022-10-11T20:54:07.592Z,28.87
2022-10-11T20:56:35.027Z,26.20
2022-10-11T20:59:02.352Z,24.30
2022-10-11T21:01:40.615Z,29.05
2022-10-11T21:04:19.892Z,23.50
2022-10-11T21:06:50.437Z,20.03
2022-10-11T21:09:17.816Z,21.27
2022-10-11T21:11:44.799Z,23.25
2022-10-11T21:14:11.721Z,22.40
2022-10-11T21:16:38.667Z,22.00
2022-10-11T21:19:06.156Z,22.17
2022-10-11T21:21:33.117Z,22.55
2022-10-11T21:24:01.999Z,25.27
2022-10-11T21:26:30.890Z,19.48
2022-10-11T21:29:01.515Z,25.92
2022-10-11T21:31:33.623Z,21.77
2022-10-11T21:34:02.022Z,27.85
2022-10-11T21:36:28.932Z,20.52
2022-10-11T21:38:56.580Z,20.88
2022-10-11T21:41:26.359Z,29.08
2022-10-11T21:43:54.035Z,19.73
2022-10-11T21:46:47.442Z,22.90
2022-10-11T21:49:14.939Z,22.38
2022-10-11T21:51:42.061Z,24.45
2022-10-11T21:54:09.046Z,23.17
2022-10-11T21:56:36.040Z,23.10
2022-10-11T21:59:05.468Z,28.50
2022-10-11T22:01:36.689Z,29.48
2022-10-11T22:04:07.097Z,28.00
2022-10-11T22:06:35.181Z,28.40
2022-10-11T22:09:03.649Z,28.23
2022-10-11T22:11:30.608Z,31.02
2022-10-11T22:13:57.997Z,29.52
2022-10-11T22:16:25.149Z,29.13
2022-10-11T22:18:54.217Z,28.00
2022-10-11T22:21:23.406Z,29.90
2022-10-11T22:23:52.559Z,30.42
2022-10-11T22:26:23.699Z,25.70
2022-10-11T22:28:50.691Z,25.92
2022-10-11T22:31:21.268Z,28.60
2022-10-11T22:33:48.819Z,28.73
2022-10-11T22:36:19.311Z,24.10
2022-10-11T22:38:46.915Z,24.85
2022-10-11T22:41:13.886Z,25.80
2022-10-11T22:43:40.848Z,20.55
2022-10-11T22:46:07.823Z,19.97
2022-10-11T22:48:35.265Z,25.65
2022-10-11T22:51:02.492Z,18.98
2022-10-11T22:53:30.367Z,21.17
2022-10-11T22:55:57.393Z,19.08
2022-10-11T22:58:24.352Z,19.43
2022-10-11T23:00:51.244Z,20.73
2022-10-11T23:03:18.913Z,21.98
2022-10-11T23:05:57.627Z,16.60
2022-10-11T23:08:25.022Z,17.98
2022-10-11T23:10:52.307Z,18.27
2022-10-11T23:13:19.474Z,15.80
2022-10-11T23:15:46.423Z,17.50
2022-10-11T23:18:14.977Z,17.42
2022-10-11T23:20:41.859Z,19.48
2022-10-11T23:23:08.734Z,18.23
2022-10-11T23:25:35.653Z,16.83
2022-10-11T23:28:02.683Z,14.02
2022-10-11T23:30:30.405Z,15.02
2022-10-11T23:32:57.387Z,15.70
2022-10-11T23:35:24.410Z,15.47
2022-10-11T23:37:54.211Z,12.73
2022-10-11T23:40:21.166Z,13.63
2022-10-11T23:42:48.078Z,15.85
2022-10-11T23:45:15.117Z,14.38
2022-10-11T23:47:42.041Z,14.03
2022-10-11T23:50:09.545Z,17.05
2022-10-11T23:52:36.560Z,15.10
2022-10-11T23:55:04.087Z,22.45
2022-10-11T23:57:31.001Z,16.05
2022-10-11T23:59:57.871Z,16.43
